createdAt,value
2022-08-03T00:01:28.087Z,96025.34
2022-08-03T00:03:31.199Z,95960.63
2022-08-03T00:05:34.428Z,95972.47
2022-08-03T00:07:38.715Z,96027.84
2022-08-03T00:09:41.593Z,96021.94
2022-08-03T00:11:45.737Z,95965.91
2022-08-03T00:13:48.968Z,96025.56
2022-08-03T00:15:51.779Z,96018.03
2022-08-03T00:17:54.616Z,95984.88
2022-08-03T00:19:57.424Z,95992.22
2022-08-03T00:22:00.253Z,96027.38
2022-08-03T00:24:03.065Z,95870.94
2022-08-03T00:26:06.038Z,95890.84
2022-08-03T00:28:10.234Z,95908.22
2022-08-03T00:30:13.242Z,95951.03
2022-08-03T00:32:18.137Z,95838.91
2022-08-03T00:34:30.945Z,96002.63
2022-08-03T00:36:45.160Z,96004.34
2022-08-03T00:38:47.948Z,96024.84
2022-08-03T00:40:50.754Z,96000.91
2022-08-03T00:42:55.625Z,95891.44
2022-08-03T00:44:59.790Z,96001.31
2022-08-03T00:47:02.608Z,95995.84
2022-08-03T00:49:05.484Z,95954.66
2022-08-03T00:51:08.498Z,95999.31
2022-08-03T00:53:13.476Z,96003.63
2022-08-03T00:55:16.856Z,96004.41
2022-08-03T00:57:19.817Z,95991.78
2022-08-03T00:59:22.972Z,95838.16
2022-08-03T01:01:27.289Z,96001.94
2022-08-03T01:03:35.307Z,96001.47
2022-08-03T01:05:46.329Z,95987.66
2022-08-03T01:08:03.782Z,95988.88
2022-08-03T01:10:14.159Z,95992.22
2022-08-03T01:12:26.303Z,95991.09
2022-08-03T01:14:35.037Z,95993.97
2022-08-03T01:16:46.020Z,95982.94
2022-08-03T01:18:53.853Z,95979.78
2022-08-03T01:20:59.139Z,95982.59
2022-08-03T01:23:15.590Z,95990.75
2022-08-03T01:25:29.605Z,95984.66
2022-08-03T01:27:44.459Z,95976.31
2022-08-03T01:29:58.418Z,95985.56
2022-08-03T01:32:52.495Z,95977.13
2022-08-03T01:34:33.253Z,95906.22
2022-08-03T01:36:40.376Z,95968.69
2022-08-03T01:38:45.339Z,95973.69
2022-08-03T01:40:54.628Z,95750.50
2022-08-03T01:43:00.606Z,95977.59
2022-08-03T01:45:06.966Z,95920.13
2022-08-03T01:47:13.651Z,95969.91
2022-08-03T01:49:17.992Z,95966.78
2022-08-03T01:51:22.068Z,95970.19
2022-08-03T01:53:25.760Z,95978.22
2022-08-03T01:55:32.064Z,95974.69
2022-08-03T01:58:04.622Z,95970.66
2022-08-03T02:00:02.299Z,95951.78
2022-08-03T02:02:32.895Z,95965.41
2022-08-03T02:04:39.583Z,95970.72
2022-08-03T02:07:02.231Z,95798.09
2022-08-03T02:09:07.271Z,95967.06
2022-08-03T02:11:10.295Z,95545.94
2022-08-03T02:13:15.446Z,95909.03
2022-08-03T02:15:20.665Z,95963.50
2022-08-03T02:17:39.278Z,95832.31
2022-08-03T02:19:43.907Z,95960.41
2022-08-03T02:21:55.682Z,95962.75
2022-08-03T02:24:00.529Z,95968.38
2022-08-03T02:26:05.597Z,95970.06
2022-08-03T02:28:12.219Z,95961.31
2022-08-03T02:30:15.368Z,95955.66
2022-08-03T02:32:22.332Z,95821.94
2022-08-03T02:34:30.407Z,95963.25
2022-08-03T02:36:37.213Z,95956.94
2022-08-03T02:38:43.737Z,95961.41
2022-08-03T02:40:47.791Z,95964.97
2022-08-03T02:42:54.491Z,95955.59
2022-08-03T02:45:00.026Z,95965.44
2022-08-03T02:47:08.889Z,95963.03
2022-08-03T02:49:40.996Z,95968.16
2022-08-03T02:51:41.239Z,95965.63
2022-08-03T02:53:46.219Z,95962.22
2022-08-03T02:55:50.127Z,95895.97
2022-08-03T02:57:53.848Z,95960.91
2022-08-03T02:59:58.681Z,95952.69
2022-08-03T03:02:03.368Z,95854.34
2022-08-03T03:04:07.330Z,95956.84
2022-08-03T03:06:13.773Z,95889.22
2022-08-03T03:08:25.892Z,95943.88
2022-08-03T03:10:29.714Z,95950.97
2022-08-03T03:12:34.362Z,95951.78
2022-08-03T03:14:38.629Z,95963.03
2022-08-03T03:16:43.191Z,95956.69
2022-08-03T03:18:48.846Z,95861.09
2022-08-03T03:20:53.976Z,95948.63
2022-08-03T03:22:59.261Z,95956.66
2022-08-03T03:25:04.497Z,95954.41
2022-08-03T03:27:07.676Z,95952.91
2022-08-03T03:29:10.883Z,95958.53
2022-08-03T03:31:13.757Z,95926.88
2022-08-03T03:33:16.729Z,95950.69
2022-08-03T03:35:19.601Z,95882.09
2022-08-03T03:37:22.561Z,95950.13
2022-08-03T03:39:25.500Z,95947.53
2022-08-03T03:41:30.004Z,95948.53
2022-08-03T03:43:37.027Z,95947.47
2022-08-03T03:45:42.380Z,95949.28
2022-08-03T03:47:45.263Z,95954.09
2022-08-03T03:49:48.199Z,95951.34
2022-08-03T03:51:54.424Z,95944.25
2022-08-03T03:53:58.134Z,95872.56
2022-08-03T03:56:02.564Z,95885.41
2022-08-03T03:58:07.700Z,95948.78
2022-08-03T04:00:11.655Z,95964.88
2022-08-03T04:02:14.785Z,95950.53
2022-08-03T04:04:43.889Z,95949.56
2022-08-03T04:07:04.305Z,95934.91
2022-08-03T04:09:27.217Z,95953.38
2022-08-03T04:11:35.805Z,95952.47
2022-08-03T04:13:48.493Z,95949.13
2022-08-03T04:15:52.873Z,95956.53
2022-08-03T04:17:59.935Z,95961.84
2022-08-03T04:20:04.845Z,95958.78
2022-08-03T04:22:10.796Z,95938.69
2022-08-03T04:24:15.943Z,95955.47
2022-08-03T04:26:22.520Z,95966.19
2022-08-03T04:28:31.037Z,95901.78
2022-08-03T04:30:38.704Z,95965.06
2022-08-03T04:32:46.032Z,95960.56
2022-08-03T04:34:49.048Z,95962.84
2022-08-03T04:36:58.617Z,95964.72
2022-08-03T04:39:05.550Z,95965.41
2022-08-03T04:41:09.941Z,95970.41
2022-08-03T04:43:16.181Z,95970.50
2022-08-03T04:45:20.489Z,95966.03
2022-08-03T04:47:25.045Z,95972.34
2022-08-03T04:49:30.074Z,95970.63
2022-08-03T04:51:34.722Z,95966.94
2022-08-03T04:53:38.465Z,95764.56
2022-08-03T04:55:41.497Z,95978.53
2022-08-03T04:57:44.335Z,95819.25
2022-08-03T04:59:49.429Z,95978.44
2022-08-03T05:01:52.266Z,95978.22
2022-08-03T05:03:56.397Z,95982.53
2022-08-03T05:06:01.487Z,95989.91
2022-08-03T05:08:05.224Z,95935.91
2022-08-03T05:10:16.340Z,95859.41
2022-08-03T05:12:19.592Z,95982.44
2022-08-03T05:14:28.006Z,95987.09
2022-08-03T05:16:31.269Z,95989.03
2022-08-03T05:18:34.085Z,95988.69
2022-08-03T05:20:38.769Z,95773.72
2022-08-03T05:22:41.704Z,95990.44
2022-08-03T05:24:44.519Z,95988.22
2022-08-03T05:26:47.463Z,95994.97
2022-08-03T05:28:51.407Z,95988.88
2022-08-03T05:30:54.352Z,95988.47
2022-08-03T05:32:57.143Z,95997.78
2022-08-03T05:34:59.937Z,95996.03
2022-08-03T05:37:24.099Z,95991.84
2022-08-03T05:39:26.855Z,95996.69
2022-08-03T05:41:37.080Z,95998.44
2022-08-03T05:43:40.303Z,95997.81
2022-08-03T05:45:43.256Z,95999.09
2022-08-03T05:47:46.068Z,96001.50
2022-08-03T05:49:48.921Z,96005.38
2022-08-03T05:52:00.149Z,95999.28
2022-08-03T05:54:16.293Z,96000.25
2022-08-03T05:56:23.466Z,95941.47
2022-08-03T05:58:26.236Z,95997.72
2022-08-03T06:00:33.013Z,96002.06
2022-08-03T06:02:36.145Z,95999.66
2022-08-03T06:04:39.061Z,96001.16
2022-08-03T06:06:42.116Z,95995.56
2022-08-03T06:08:46.002Z,96002.47
2022-08-03T06:10:50.278Z,96002.31
2022-08-03T06:12:53.073Z,95997.69
2022-08-03T06:14:56.612Z,95997.03
2022-08-03T06:16:59.334Z,96001.56
2022-08-03T06:19:02.102Z,96000.91
2022-08-03T06:21:15.450Z,96007.03
2022-08-03T06:23:19.135Z,95749.75
2022-08-03T06:25:21.935Z,96006.91
2022-08-03T06:27:36.578Z,96007.69
2022-08-03T06:29:40.345Z,95999.16
2022-08-03T06:31:43.207Z,95892.34
2022-08-03T06:34:30.460Z,96002.69
2022-08-03T06:36:08.983Z,96000.22
2022-08-03T06:38:14.955Z,95998.56
2022-08-03T06:40:21.634Z,96000.00
2022-08-03T06:42:26.135Z,95991.41
2022-08-03T06:44:28.935Z,95998.13
2022-08-03T06:46:31.701Z,96001.16
2022-08-03T06:48:34.584Z,95852.66
2022-08-03T06:50:44.427Z,96001.72
2022-08-03T06:52:47.241Z,95996.19
2022-08-03T06:54:50.006Z,96008.72
2022-08-03T06:56:52.851Z,95759.34
2022-08-03T06:58:57.043Z,96007.34
2022-08-03T07:00:59.863Z,96007.63
2022-08-03T07:03:02.635Z,96013.19
2022-08-03T07:05:10.025Z,96012.31
2022-08-03T07:07:12.829Z,96010.84
2022-08-03T07:09:15.586Z,96019.66
2022-08-03T07:11:18.529Z,95956.75
2022-08-03T07:13:21.341Z,95970.94
2022-08-03T07:15:38.319Z,95914.22
2022-08-03T07:17:49.022Z,96014.16
2022-08-03T07:19:51.887Z,96009.38
2022-08-03T07:21:54.704Z,96014.31
2022-08-03T07:24:03.531Z,96011.69
2022-08-03T07:26:06.332Z,96011.94
2022-08-03T07:28:09.279Z,96009.66
2022-08-03T07:30:12.893Z,96018.22
2022-08-03T07:32:17.330Z,96018.47
2022-08-03T07:34:20.279Z,95969.56
2022-08-03T07:36:24.693Z,96017.63
2022-08-03T07:38:27.429Z,96018.91
2022-08-03T07:40:31.670Z,96024.84
2022-08-03T07:42:34.992Z,96018.78
2022-08-03T07:44:39.249Z,96022.47
2022-08-03T07:46:42.010Z,96010.19
2022-08-03T07:48:46.175Z,96014.44
2022-08-03T07:50:49.229Z,96012.25
2022-08-03T07:52:53.411Z,96010.53
2022-08-03T07:54:56.220Z,96013.97
2022-08-03T07:56:58.963Z,96011.22
2022-08-03T07:59:02.889Z,96011.56
2022-08-03T08:01:05.845Z,96074.84
2022-08-03T08:03:08.933Z,96008.06
2022-08-03T08:05:13.511Z,95909.91
2022-08-03T08:07:16.309Z,96007.22
2022-08-03T08:09:21.227Z,96006.38
2022-08-03T08:11:24.009Z,96007.06
2022-08-03T08:13:26.981Z,96006.56
2022-08-03T08:15:29.956Z,96007.91
2022-08-03T08:17:32.796Z,96001.69
2022-08-03T08:19:37.501Z,96001.53
2022-08-03T08:21:53.100Z,95948.84
2022-08-03T08:24:10.952Z,96001.00
2022-08-03T08:26:21.156Z,95756.25
2022-08-03T08:28:32.384Z,96006.03
2022-08-03T08:30:36.524Z,96004.34
2022-08-03T08:32:39.390Z,96002.13
2022-08-03T08:34:42.149Z,96002.19
2022-08-03T08:36:46.266Z,96007.63
2022-08-03T08:38:50.924Z,95889.50
2022-08-03T08:40:56.673Z,95953.16
2022-08-03T08:42:59.526Z,95944.06
2022-08-03T08:45:02.414Z,96001.56
2022-08-03T08:47:05.418Z,96001.84
2022-08-03T08:49:10.685Z,95990.88
2022-08-03T08:51:14.450Z,95996.91
2022-08-03T08:53:22.786Z,95998.84
2022-08-03T08:55:59.522Z,96006.97
2022-08-03T08:58:05.160Z,96003.84
2022-08-03T09:00:11.665Z,96001.13
2022-08-03T09:02:14.938Z,95997.88
2022-08-03T09:04:18.633Z,95836.72
2022-08-03T09:06:21.595Z,96000.31
2022-08-03T09:08:25.877Z,96000.50
2022-08-03T09:10:28.613Z,96002.69
2022-08-03T09:12:41.884Z,95995.34
2022-08-03T09:15:07.426Z,95992.63
2022-08-03T09:17:12.508Z,95992.03
2022-08-03T09:19:20.131Z,95959.81
2022-08-03T09:21:31.805Z,95932.09
2022-08-03T09:24:01.332Z,95852.78
2022-08-03T09:26:05.847Z,95983.50
2022-08-03T09:28:11.296Z,95980.66
2022-08-03T09:30:19.100Z,95991.44
2022-08-03T09:32:38.548Z,95941.47
2022-08-03T09:34:41.388Z,95988.53
2022-08-03T09:36:46.453Z,95957.63
2022-08-03T09:39:03.700Z,95990.50
2022-08-03T09:41:19.530Z,95974.75
2022-08-03T09:43:24.114Z,95934.50
2022-08-03T09:45:27.871Z,95984.25
2022-08-03T09:47:32.667Z,95980.97
2022-08-03T09:49:35.654Z,95951.31
2022-08-03T09:52:32.450Z,95868.41
2022-08-03T09:54:05.584Z,95984.16
2022-08-03T09:56:35.491Z,95976.28
2022-08-03T09:58:33.517Z,95983.41
2022-08-03T10:00:54.969Z,95984.22
2022-08-03T10:03:05.702Z,95977.97
2022-08-03T10:05:10.578Z,95982.00
2022-08-03T10:07:22.152Z,95977.13
2022-08-03T10:09:26.299Z,95972.28
2022-08-03T10:11:30.753Z,95974.97
2022-08-03T10:13:34.622Z,95964.59
2022-08-03T10:16:23.180Z,95963.13
2022-08-03T10:18:00.326Z,95966.78
2022-08-03T10:20:04.089Z,95968.38
2022-08-03T10:22:11.571Z,95788.97
2022-08-03T10:24:18.006Z,95965.19
2022-08-03T10:26:26.248Z,95975.13
2022-08-03T10:28:37.594Z,95953.66
2022-08-03T10:30:45.085Z,95955.25
2022-08-03T10:32:53.486Z,95949.31
2022-08-03T10:35:20.137Z,95682.59
2022-08-03T10:37:27.874Z,95952.91
2022-08-03T10:39:31.628Z,95951.72
2022-08-03T10:41:41.010Z,95960.84
2022-08-03T10:43:49.567Z,95952.47
2022-08-03T10:45:53.280Z,95960.06
2022-08-03T10:47:58.075Z,95953.66
2022-08-03T10:50:01.515Z,95940.09
2022-08-03T10:52:13.039Z,95948.09
2022-08-03T10:55:03.400Z,95944.53
2022-08-03T10:57:25.106Z,95783.09
2022-08-03T10:59:59.299Z,95926.38
2022-08-03T11:02:02.115Z,95934.19
2022-08-03T11:04:26.564Z,95933.31
2022-08-03T11:06:37.244Z,95926.78
2022-08-03T11:08:40.529Z,95933.00
2022-08-03T11:10:43.745Z,95927.38
2022-08-03T11:12:48.971Z,95924.19
2022-08-03T11:14:55.234Z,95928.81
2022-08-03T11:17:14.159Z,95916.31
2022-08-03T11:19:22.455Z,95916.00
2022-08-03T11:21:58.875Z,95920.50
2022-08-03T11:24:04.682Z,95919.63
2022-08-03T11:26:13.223Z,95921.91
2022-08-03T11:28:30.540Z,95913.13
2022-08-03T11:30:33.724Z,95908.97
2022-08-03T11:32:58.036Z,95912.56
2022-08-03T11:35:11.685Z,95906.31
2022-08-03T11:37:29.919Z,95907.38
2022-08-03T11:39:40.506Z,95902.84
2022-08-03T11:41:45.425Z,95904.16
2022-08-03T11:43:49.866Z,95899.91
2022-08-03T11:45:59.042Z,95770.59
2022-08-03T11:48:14.562Z,95905.50
2022-08-03T11:50:18.932Z,95880.47
2022-08-03T11:52:27.339Z,95895.06
2022-08-03T11:54:32.346Z,95899.06
2022-08-03T11:56:45.779Z,95896.59
2022-08-03T11:59:09.334Z,95898.69
2022-08-03T12:01:21.189Z,95890.09
2022-08-03T12:03:25.930Z,95888.88
2022-08-03T12:05:37.316Z,95755.16
2022-08-03T12:08:04.638Z,95887.75
2022-08-03T12:10:10.810Z,95884.38
2022-08-03T12:12:17.207Z,95877.69
2022-08-03T12:14:50.917Z,95883.34
2022-08-03T12:16:48.418Z,95883.44
2022-08-03T12:18:56.793Z,95693.59
2022-08-03T12:21:07.200Z,95883.59
2022-08-03T12:23:11.112Z,95882.94
2022-08-03T12:25:38.884Z,95879.78
2022-08-03T12:27:42.813Z,95873.94
2022-08-03T12:29:58.177Z,95876.13
2022-08-03T12:32:01.790Z,95786.47
2022-08-03T12:34:08.813Z,95871.91
2022-08-03T12:36:12.179Z,95806.81
2022-08-03T12:38:19.923Z,95866.72
2022-08-03T12:40:28.349Z,95829.00
2022-08-03T12:42:31.555Z,95859.75
2022-08-03T12:44:36.180Z,95854.22
2022-08-03T12:46:47.069Z,95852.75
2022-08-03T12:49:06.059Z,95771.78
2022-08-03T12:51:10.919Z,95848.59
2022-08-03T12:53:13.792Z,95846.31
2022-08-03T12:55:21.178Z,95843.53
2022-08-03T12:57:23.939Z,95848.28
2022-08-03T12:59:32.316Z,95847.50
2022-08-03T13:01:55.127Z,95848.34
2022-08-03T13:03:58.969Z,95848.34
2022-08-03T13:06:04.118Z,95847.31
2022-08-03T13:08:19.137Z,95842.81
2022-08-03T13:10:30.351Z,95844.63
2022-08-03T13:12:33.138Z,95852.06
2022-08-03T13:14:36.151Z,95804.44
2022-08-03T13:16:38.946Z,95846.59
2022-08-03T13:18:43.109Z,95836.97
2022-08-03T13:20:46.911Z,95841.59
2022-08-03T13:22:49.942Z,95836.06
2022-08-03T13:24:55.846Z,95835.63
2022-08-03T13:26:58.587Z,95823.91
2022-08-03T13:29:01.345Z,95829.09
2022-08-03T13:31:04.230Z,95835.06
2022-08-03T13:33:09.970Z,95826.38
2022-08-03T13:35:16.654Z,95828.50
2022-08-03T13:37:19.547Z,95830.44
2022-08-03T13:39:22.523Z,95827.97
2022-08-03T13:41:35.559Z,95664.00
2022-08-03T13:43:38.327Z,95819.84
2022-08-03T13:45:42.870Z,95818.94
2022-08-03T13:47:49.576Z,95812.97
2022-08-03T13:50:00.072Z,95816.47
2022-08-03T13:52:06.720Z,95812.75
2022-08-03T13:54:09.895Z,95734.94
2022-08-03T13:56:12.715Z,95812.84
2022-08-03T13:58:15.808Z,95811.50
2022-08-03T14:00:27.532Z,95804.84
2022-08-03T14:02:31.706Z,95627.25
2022-08-03T14:04:34.494Z,95800.84
2022-08-03T14:06:37.209Z,95800.06
2022-08-03T14:08:41.559Z,95794.66
2022-08-03T14:10:46.121Z,95790.53
2022-08-03T14:12:49.083Z,95792.72
2022-08-03T14:14:51.827Z,95793.91
2022-08-03T14:16:55.326Z,95793.69
2022-08-03T14:18:59.486Z,95797.34
2022-08-03T14:21:07.523Z,95787.81
2022-08-03T14:23:10.335Z,95783.53
2022-08-03T14:25:14.548Z,95783.69
2022-08-03T14:27:20.165Z,95794.69
2022-08-03T14:29:23.118Z,95791.56
2022-08-03T14:32:11.246Z,95786.31
2022-08-03T14:33:49.883Z,95788.03
2022-08-03T14:35:53.635Z,95788.13
2022-08-03T14:37:56.473Z,95792.09
2022-08-03T14:40:00.389Z,95780.34
2022-08-03T14:42:05.440Z,95696.94
2022-08-03T14:44:08.555Z,95782.69
2022-08-03T14:46:11.366Z,95779.09
2022-08-03T14:50:32.447Z,95784.41
2022-08-03T14:50:43.169Z,95714.84
2022-08-03T14:52:48.380Z,95763.22
2022-08-03T14:54:51.121Z,95761.56
2022-08-03T14:56:53.871Z,95761.75
2022-08-03T14:58:58.023Z,95750.16
2022-08-03T15:01:00.858Z,95762.28
2022-08-03T15:03:04.760Z,95767.06
2022-08-03T15:05:08.945Z,95767.28
2022-08-03T15:07:11.970Z,95765.06
2022-08-03T15:09:23.559Z,95765.75
2022-08-03T15:11:26.818Z,95756.97
2022-08-03T15:13:29.568Z,95759.66
2022-08-03T15:15:33.932Z,95758.47
2022-08-03T15:17:36.672Z,95755.34
2022-08-03T15:20:03.302Z,95756.50
2022-08-03T15:22:02.955Z,95745.28
2022-08-03T15:24:06.368Z,95726.31
2022-08-03T15:26:32.873Z,95735.91
2022-08-03T15:28:32.170Z,95740.44
2022-08-03T15:30:37.632Z,95742.94
2022-08-03T15:32:40.645Z,95741.25
2022-08-03T15:34:50.225Z,95756.69
2022-08-03T15:36:53.585Z,95733.94
2022-08-03T15:38:56.436Z,95730.97
2022-08-03T15:40:59.315Z,95734.28
2022-08-03T15:43:02.506Z,95727.50
2022-08-03T15:45:07.417Z,95735.69
2022-08-03T15:47:11.456Z,95727.69
2022-08-03T15:49:14.266Z,95733.16
2022-08-03T15:51:17.353Z,95715.09
2022-08-03T15:53:20.148Z,95727.81
2022-08-03T15:55:23.023Z,95730.50
2022-08-03T15:57:25.781Z,95725.34
2022-08-03T15:59:28.496Z,95727.06
2022-08-03T16:01:31.778Z,95669.97
2022-08-03T16:03:36.175Z,95724.06
2022-08-03T16:05:38.972Z,95715.56
2022-08-03T16:08:03.951Z,95715.28
2022-08-03T16:10:08.517Z,95716.31
2022-08-03T16:12:16.126Z,95636.03
2022-08-03T16:14:31.386Z,95612.75
2022-08-03T16:16:40.453Z,95711.50
2022-08-03T16:18:44.534Z,95711.84
2022-08-03T16:20:47.844Z,95703.25
2022-08-03T16:22:51.040Z,95664.69
2022-08-03T16:24:54.791Z,95708.06
2022-08-03T16:26:57.750Z,95718.19
2022-08-03T16:29:03.348Z,95708.38
2022-08-03T16:31:08.969Z,95708.22
2022-08-03T16:33:16.573Z,95707.44
2022-08-03T16:35:23.203Z,95576.16
2022-08-03T16:37:41.399Z,95705.22
2022-08-03T16:39:48.637Z,95705.44
2022-08-03T16:41:54.435Z,95704.41
2022-08-03T16:44:09.512Z,95698.44
2022-08-03T16:46:12.679Z,95697.78
2022-08-03T16:48:15.979Z,95594.53
2022-08-03T16:50:20.008Z,95609.72
2022-08-03T16:52:24.482Z,95700.44
2022-08-03T16:54:27.992Z,95707.41
2022-08-03T16:56:32.071Z,95696.78
2022-08-03T16:58:42.470Z,95693.75
2022-08-03T17:00:47.216Z,95703.91
2022-08-03T17:02:56.279Z,95702.84
2022-08-03T17:04:59.172Z,95699.94
2022-08-03T17:07:04.504Z,95695.72
2022-08-03T17:09:11.895Z,95617.28
2022-08-03T17:11:14.661Z,95656.72
2022-08-03T17:13:22.576Z,95700.75
2022-08-03T17:15:38.224Z,95612.97
2022-08-03T17:17:55.972Z,95701.34
2022-08-03T17:19:59.812Z,95664.88
2022-08-03T17:22:05.172Z,95702.47
2022-08-03T17:24:15.056Z,95666.91
2022-08-03T17:26:24.541Z,95709.63
2022-08-03T17:28:48.489Z,95710.47
2022-08-03T17:31:22.928Z,95708.75
2022-08-03T17:33:35.792Z,95711.16
2022-08-03T17:35:38.741Z,95705.06
2022-08-03T17:37:57.481Z,95711.81
2022-08-03T17:40:07.912Z,95667.03
2022-08-03T17:42:29.536Z,95719.03
2022-08-03T17:44:46.240Z,95719.53
2022-08-03T17:46:51.306Z,95731.00
2022-08-03T17:48:54.112Z,95593.97
2022-08-03T17:51:04.146Z,95728.09
2022-08-03T17:53:15.657Z,95651.31
2022-08-03T17:55:56.779Z,95739.00
2022-08-03T17:58:02.630Z,95719.88
2022-08-03T18:00:22.779Z,95650.81
2022-08-03T18:02:54.655Z,95726.91
2022-08-03T18:05:16.588Z,95729.28
2022-08-03T18:07:23.274Z,95739.75
2022-08-03T18:10:06.112Z,95745.75
2022-08-03T18:12:15.030Z,95703.25
2022-08-03T18:14:26.477Z,95738.63
2022-08-03T18:16:35.149Z,95777.25
2022-08-03T18:18:43.593Z,95610.47
2022-08-03T18:20:48.543Z,95695.47
2022-08-03T18:22:51.764Z,95587.66
2022-08-03T18:24:56.953Z,95749.31
2022-08-03T18:27:02.324Z,95660.50
2022-08-03T18:29:08.967Z,95745.41
2022-08-03T18:32:00.175Z,95753.13
2022-08-03T18:34:16.801Z,95829.78
2022-08-03T18:36:03.716Z,95754.22
2022-08-03T18:38:10.424Z,95445.16
2022-08-03T18:40:13.811Z,95751.06
2022-08-03T18:42:26.392Z,95691.19
2022-08-03T18:44:46.459Z,95756.81
2022-08-03T18:47:07.167Z,95755.25
2022-08-03T18:49:14.182Z,95751.75
2022-08-03T18:51:28.504Z,95751.31
2022-08-03T18:54:03.097Z,95681.78
2022-08-03T18:56:10.959Z,95742.97
2022-08-03T18:58:20.554Z,95605.97
2022-08-03T19:00:35.134Z,95619.00
2022-08-03T19:02:51.231Z,95712.38
2022-08-03T19:04:55.439Z,95658.16
2022-08-03T19:07:04.914Z,95760.78
2022-08-03T19:09:18.085Z,95763.56
2022-08-03T19:11:28.149Z,95767.50
2022-08-03T19:13:36.595Z,95736.00
2022-08-03T19:18:10.891Z,95729.22
2022-08-03T19:20:14.533Z,95706.44
2022-08-03T19:22:20.776Z,95775.84
2022-08-03T19:24:26.330Z,95719.78
2022-08-03T19:26:30.906Z,95644.94
2022-08-03T19:28:35.098Z,95786.72
2022-08-03T19:30:40.719Z,95712.56
2022-08-03T19:32:51.252Z,95744.63
2022-08-03T19:34:54.379Z,95395.66
2022-08-03T19:36:59.285Z,95527.19
2022-08-03T19:39:03.734Z,95788.66
2022-08-03T19:41:14.749Z,95792.75
2022-08-03T19:43:21.685Z,95521.13
2022-08-03T19:46:04.996Z,95784.66
2022-08-03T19:48:09.815Z,95785.22
2022-08-03T19:50:14.953Z,95732.69
2022-08-03T19:52:24.473Z,95787.50
2022-08-03T19:54:53.057Z,95790.59
2022-08-03T19:57:04.816Z,95775.53
2022-08-03T19:59:13.123Z,95699.72
2022-08-03T20:01:21.325Z,95785.03
2022-08-03T20:03:27.628Z,95792.88
2022-08-03T20:05:52.184Z,95492.81
2022-08-03T20:08:01.027Z,95793.22
2022-08-03T20:10:08.818Z,95790.78
2022-08-03T20:12:12.036Z,95661.47
2022-08-03T20:14:20.833Z,95785.06
2022-08-03T20:16:29.375Z,95792.97
2022-08-03T20:18:39.151Z,95436.94
2022-08-03T20:20:43.329Z,95783.94
2022-08-03T20:22:51.319Z,95786.91
2022-08-03T20:24:56.701Z,95793.53
2022-08-03T20:27:01.328Z,95799.81
2022-08-03T20:29:10.155Z,95793.00
2022-08-03T20:31:13.585Z,95775.63
2022-08-03T20:33:18.850Z,95641.63
2022-08-03T20:35:23.746Z,95796.94
2022-08-03T20:37:26.603Z,95784.75
2022-08-03T20:39:33.449Z,95767.47
2022-08-03T20:41:36.444Z,95792.63
2022-08-03T20:43:41.740Z,95797.56
2022-08-03T20:45:59.074Z,95799.75
2022-08-03T20:48:05.821Z,95788.50
2022-08-03T20:50:12.170Z,95764.00
2022-08-03T20:52:18.417Z,95799.06
2022-08-03T20:54:31.341Z,95798.31
2022-08-03T20:56:35.903Z,95777.69
2022-08-03T20:58:41.629Z,95793.66
2022-08-03T21:00:46.237Z,95799.53
2022-08-03T21:02:49.383Z,95718.50
2022-08-03T21:04:52.159Z,95805.91
2022-08-03T21:07:00.597Z,95798.06
2022-08-03T21:09:07.775Z,95795.63
2022-08-03T21:11:15.285Z,95801.56
2022-08-03T21:13:01.804Z,95768.22
2022-08-03T21:13:25.616Z,95799.84
2022-08-03T21:16:11.708Z,95795.19
2022-08-03T21:17:56.584Z,95794.91
2022-08-03T21:20:03.169Z,95790.81
2022-08-03T21:22:09.777Z,95790.53
2022-08-03T21:24:14.952Z,95793.28
2022-08-03T21:26:18.887Z,95784.28
2022-08-03T21:28:24.676Z,95793.09
2022-08-03T21:30:31.783Z,95789.97
2022-08-03T21:32:34.800Z,95743.56
2022-08-03T21:34:37.701Z,95783.22
2022-08-03T21:36:40.430Z,95787.50
2022-08-03T21:38:43.861Z,95785.03
2022-08-03T21:40:54.626Z,95783.88
2022-08-03T21:42:57.368Z,95788.94
2022-08-03T21:45:00.127Z,95777.53
2022-08-03T21:47:03.359Z,95785.59
2022-08-03T21:50:04.203Z,95770.47
2022-08-03T21:51:33.815Z,95696.28
2022-08-03T21:54:04.395Z,95782.53
2022-08-03T21:56:07.710Z,95661.03
2022-08-03T21:58:12.825Z,95789.22
2022-08-03T22:00:18.028Z,95787.97
2022-08-03T22:02:24.351Z,95790.66
2022-08-03T22:04:55.275Z,95793.69
2022-08-03T22:06:52.121Z,95788.00
2022-08-03T22:08:55.068Z,95791.47
2022-08-03T22:10:58.156Z,95785.28
2022-08-03T22:13:08.649Z,95612.59
2022-08-03T22:15:13.353Z,95784.03
2022-08-03T22:17:54.109Z,95787.16
2022-08-03T22:19:39.174Z,95776.97
2022-08-03T22:21:43.237Z,95800.06
2022-08-03T22:23:48.926Z,95783.63
2022-08-03T22:25:53.986Z,95800.53
2022-08-03T22:27:58.082Z,95793.06
2022-08-03T22:30:05.250Z,95793.78
2022-08-03T22:32:08.321Z,95792.53
2022-08-03T22:34:11.098Z,95766.75
2022-08-03T22:36:14.448Z,95794.94
2022-08-03T22:38:18.120Z,95796.53
2022-08-03T22:40:20.982Z,95793.16
2022-08-03T22:42:25.351Z,95798.50
2022-08-03T22:44:29.012Z,95802.56
2022-08-03T22:46:34.971Z,95769.09
2022-08-03T22:48:41.353Z,95786.38
2022-08-03T22:50:45.319Z,95792.88
2022-08-03T22:52:48.322Z,95780.44
2022-08-03T22:54:54.547Z,95542.06
2022-08-03T22:56:58.962Z,95796.66
2022-08-03T22:59:01.685Z,95794.00
2022-08-03T23:01:28.764Z,95793.41
2022-08-03T23:04:00.056Z,95328.00
2022-08-03T23:06:03.614Z,95792.34
2022-08-03T23:08:09.571Z,95796.25
2022-08-03T23:10:14.843Z,95804.84
2022-08-03T23:12:20.581Z,95809.13
2022-08-03T23:14:24.073Z,95806.28
2022-08-03T23:16:29.671Z,95786.25
2022-08-03T23:18:37.470Z,95805.47
2022-08-03T23:20:40.738Z,95808.13
2022-08-03T23:22:48.680Z,95810.28
2022-08-03T23:24:54.845Z,95783.41
2022-08-03T23:26:58.131Z,95807.97
2022-08-03T23:29:02.265Z,95829.44
2022-08-03T23:31:05.437Z,95780.91
2022-08-03T23:33:10.318Z,95810.56
2022-08-03T23:36:27.785Z,95804.28
2022-08-03T23:38:04.675Z,95779.50
2022-08-03T23:40:23.261Z,95807.19
2022-08-03T23:42:27.203Z,95803.63
2022-08-03T23:44:32.230Z,95785.50
2022-08-03T23:46:37.121Z,95805.50
2022-08-03T23:48:39.832Z,95805.59
2022-08-03T23:50:46.948Z,95810.63
2022-08-03T23:52:57.853Z,95802.19
2022-08-03T23:55:14.036Z,95804.84
2022-08-03T23:57:26.535Z,95796.59
2022-08-03T23:59:36.267Z,95795.97
